Time;durP1;ratioP1;P1;durP2;ratioP2;P2;SDS_P1;SDS_P2;PMS_P1;PMS_P2;Temp;Humidity;BMP_temperature;BMP_pressure;BME280_temperature;BME280_humidity;BME280_pressure;Samples;Min_cycle;Max_cycle;Signal;HPM_P1;HPM_P2
2023/12/07 00:01:55;;;;;;;41.05;37.40;;;11.50;1.00;;;;;;4999252;28;20488;-66
2023/12/07 00:04:21;;;;;;;41.17;37.50;;;11.80;1.00;;;;;;4986845;28;20097;-66
2023/12/07 00:06:46;;;;;;;37.80;34.17;;;11.70;1.00;;;;;;4986866;28;20042;-66
2023/12/07 00:09:12;;;;;;;42.47;38.78;;;11.50;1.00;;;;;;4986965;28;20440;-66
2023/12/07 00:11:37;;;;;;;45.05;41.25;;;11.90;28.60;;;;;;4986528;28;20030;-65
2023/12/07 00:14:03;;;;;;;41.80;38.10;;;11.90;1.00;;;;;;4995286;28;20054;-66
2023/12/07 00:16:29;;;;;;;44.60;40.70;;;11.30;1.00;;;;;;4989957;28;20038;-66
2023/12/07 00:18:54;;;;;;;43.90;40.03;;;11.60;1.00;;;;;;5006238;28;20052;-66
2023/12/07 00:21:20;;;;;;;46.55;42.65;;;11.60;1.00;;;;;;5004897;28;20046;-65
2023/12/07 00:23:46;;;;;;;46.95;42.67;;;11.20;1.00;;;;;;4986723;28;20042;-66
2023/12/07 00:26:11;;;;;;;46.30;42.30;;;11.00;1.00;;;;;;4986621;28;20473;-66
2023/12/07 00:28:37;;;;;;;47.25;43.05;;;11.00;10.10;;;;;;4993319;28;20042;-66
2023/12/07 00:31:02;;;;;;;40.58;36.97;;;11.60;1.00;;;;;;5005647;28;20038;-66
2023/12/07 00:33:28;;;;;;;42.67;38.78;;;11.00;22.00;;;;;;4987295;28;20074;-66
2023/12/07 00:35:54;;;;;;;40.53;36.80;;;11.60;50.60;;;;;;4984792;28;20069;-66
2023/12/07 00:38:20;;;;;;;42.47;38.45;;;11.60;99.90;;;;;;5004854;28;20577;-66
2023/12/07 00:40:46;;;;;;;43.42;39.35;;;11.70;99.90;;;;;;5001198;28;20049;-66
2023/12/07 00:43:12;;;;;;;40.88;36.92;;;11.50;99.90;;;;;;4999614;28;20049;-66
2023/12/07 00:45:37;;;;;;;42.53;38.83;;;11.30;99.90;;;;;;5004690;28;20041;-65
2023/12/07 00:48:04;;;;;;;45.33;41.03;;;11.60;99.90;;;;;;5021400;28;20046;-65
2023/12/07 00:50:29;;;;;;;47.22;43.10;;;11.30;99.90;;;;;;5005677;28;20050;-66
2023/12/07 00:52:55;;;;;;;42.90;38.70;;;11.30;99.90;;;;;;4992153;28;20053;-66
2023/12/07 00:55:20;;;;;;;48.17;43.70;;;11.50;99.90;;;;;;4986008;28;20043;-66
2023/12/07 00:57:46;;;;;;;48.13;44.13;;;11.50;99.90;;;;;;4986102;28;20381;-66
2023/12/07 01:00:12;;;;;;;46.40;42.08;;;10.90;99.90;;;;;;4985793;28;20496;-66
2023/12/07 01:02:37;;;;;;;47.85;43.22;;;11.20;99.90;;;;;;4985518;28;20412;-66
2023/12/07 01:05:03;;;;;;;45.78;41.45;;;10.90;99.90;;;;;;4985956;28;20058;-63
2023/12/07 01:07:29;;;;;;;44.67;40.50;;;11.00;99.90;;;;;;4985775;28;20054;-64
2023/12/07 01:09:54;;;;;;;40.83;37.05;;;11.40;1.00;;;;;;4985857;28;20046;-65
2023/12/07 01:12:20;;;;;;;43.38;38.97;;;11.40;1.00;;;;;;4991781;28;20042;-63
2023/12/07 01:14:45;;;;;;;43.50;39.20;;;11.70;1.00;;;;;;4996959;28;20064;-63
2023/12/07 01:17:11;;;;;;;42.83;39.00;;;10.80;1.00;;;;;;4987785;28;20061;-63
2023/12/07 01:19:36;;;;;;;44.58;40.45;;;11.30;1.00;;;;;;4989478;28;20038;-64
2023/12/07 01:22:02;;;;;;;49.00;44.97;;;10.80;16.50;;;;;;4989737;28;20042;-64
2023/12/07 01:24:29;;;;;;;45.72;41.45;;;11.10;76.00;;;;;;4989412;28;20050;-63
2023/12/07 01:26:54;;;;;;;39.92;36.30;;;10.80;99.90;;;;;;4992754;28;20057;-63
2023/12/07 01:29:20;;;;;;;49.72;45.47;;;11.40;99.90;;;;;;4998441;28;20042;-63
2023/12/07 01:31:46;;;;;;;50.03;45.83;;;11.20;99.90;;;;;;4998233;28;20038;-64
2023/12/07 01:34:11;;;;;;;49.05;44.85;;;11.60;99.90;;;;;;5002454;28;20034;-63
2023/12/07 01:36:37;;;;;;;49.65;45.45;;;11.00;99.90;;;;;;5002985;28;20124;-64
2023/12/07 01:39:03;;;;;;;44.38;40.47;;;10.90;99.90;;;;;;4988778;28;20050;-63
2023/12/07 01:41:28;;;;;;;42.55;38.67;;;11.20;99.90;;;;;;4991362;28;20038;-64
2023/12/07 01:43:54;;;;;;;42.90;39.05;;;10.90;1.00;;;;;;4997877;28;20385;-64
2023/12/07 01:46:19;;;;;;;42.08;38.28;;;11.00;1.00;;;;;;4988667;28;20050;-63
2023/12/07 01:48:49;;;;;;;41.10;37.08;;;10.90;1.00;;;;;;4988366;28;20053;-63
2023/12/07 01:51:14;;;;;;;96.55;38.58;;;11.20;1.00;;;;;;4987242;28;20049;-63
2023/12/07 01:53:40;;;;;;;46.13;42.10;;;11.30;1.00;;;;;;4987746;28;20436;-64
2023/12/07 01:56:08;;;;;;;46.97;42.78;;;11.10;1.00;;;;;;4989378;28;20485;-64
2023/12/07 01:58:34;;;;;;;41.97;36.75;;;10.60;1.00;;;;;;4994278;28;20547;-63
2023/12/07 02:01:01;;;;;;;49.75;45.60;;;11.00;1.00;;;;;;4994992;28;20440;-64
2023/12/07 02:03:27;;;;;;;46.47;42.28;;;11.10;1.00;;;;;;5003533;28;20615;-63
2023/12/07 02:05:54;;;;;;;43.90;40.00;;;11.20;15.00;;;;;;5022889;28;20072;-64
2023/12/07 02:08:20;;;;;;;44.42;40.70;;;10.70;99.90;;;;;;4989465;28;20061;-63
2023/12/07 02:10:46;;;;;;;39.83;36.42;;;11.30;99.90;;;;;;4988419;28;20038;-64
2023/12/07 02:13:12;;;;;;;41.45;37.50;;;10.80;49.20;;;;;;5007211;28;20109;-63
2023/12/07 02:15:37;;;;;;;45.67;41.97;;;10.50;1.00;;;;;;4987214;28;20052;-66
2023/12/07 02:18:28;;;;;;;41.95;37.63;;;10.80;62.10;;;;;;4988284;28;20042;-66
2023/12/07 02:21:15;;;;;;;43.67;39.95;;;11.00;99.90;;;;;;4988393;28;20050;-66
2023/12/07 02:23:41;;;;;;;44.30;40.20;;;10.40;99.90;;;;;;4988339;28;20117;-66
2023/12/07 02:26:10;;;;;;;48.92;45.03;;;10.30;99.90;;;;;;4989132;28;20101;-66
2023/12/07 02:28:35;;;;;;;46.85;42.83;;;10.40;99.90;;;;;;4986361;28;20057;-65
2023/12/07 02:31:01;;;;;;;49.65;45.13;;;10.30;99.90;;;;;;4985267;28;20037;-66
2023/12/07 02:33:27;;;;;;;40.53;36.40;;;11.60;99.90;;;;;;5008193;28;20045;-66
2023/12/07 02:35:52;;;;;;;41.80;37.90;;;10.50;99.90;;;;;;5007613;28;20048;-66
2023/12/07 02:38:22;;;;;;;40.55;36.83;;;11.40;1.00;;;;;;4995366;28;20117;-66
2023/12/07 02:40:48;;;;;;;43.00;39.42;;;10.90;1.00;;;;;;5009443;28;20698;-66
2023/12/07 02:43:15;;;;;;;41.90;38.40;;;11.20;1.00;;;;;;5007192;28;20419;-66
2023/12/07 02:45:41;;;;;;;45.97;42.17;;;11.10;2.40;;;;;;4995177;28;20125;-66
2023/12/07 02:48:07;;;;;;;50.85;47.00;;;10.60;90.30;;;;;;5002301;28;20085;-66
2023/12/07 02:50:32;;;;;;;53.70;49.40;;;10.80;99.90;;;;;;4987574;28;20228;-66
2023/12/07 02:52:58;;;;;;;50.03;45.50;;;11.10;99.90;;;;;;4987457;28;20042;-66
2023/12/07 02:55:23;;;;;;;53.72;48.67;;;10.40;99.90;;;;;;4987705;28;20740;-66
2023/12/07 02:57:49;;;;;;;54.15;49.38;;;11.30;99.90;;;;;;4985988;28;20038;-66
2023/12/07 03:00:15;;;;;;;61.83;56.47;;;11.30;99.90;;;;;;4986953;28;20046;-66
2023/12/07 03:02:41;;;;;;;48.30;44.10;;;10.80;1.00;;;;;;4998192;28;20662;-66
2023/12/07 03:05:07;;;;;;;50.33;46.13;;;10.80;1.00;;;;;;5002806;28;20042;-66
2023/12/07 03:07:33;;;;;;;46.65;42.60;;;11.30;12.30;;;;;;4987304;28;20050;-66
2023/12/07 03:09:59;;;;;;;46.65;42.65;;;11.40;54.00;;;;;;4985647;28;20477;-66
2023/12/07 03:12:24;;;;;;;45.95;41.95;;;11.70;99.90;;;;;;4986673;28;20089;-66
2023/12/07 03:14:50;;;;;;;45.40;40.92;;;11.40;99.90;;;;;;4987173;28;20045;-66
2023/12/07 03:17:15;;;;;;;50.25;46.10;;;10.70;99.90;;;;;;5006954;28;20112;-66
2023/12/07 03:19:41;;;;;;;46.00;42.15;;;11.20;99.90;;;;;;5006484;28;20056;-66
2023/12/07 03:22:08;;;;;;;42.25;38.65;;;11.00;99.90;;;;;;4987314;28;20042;-66
2023/12/07 03:24:37;;;;;;;46.08;42.28;;;10.50;99.90;;;;;;4987524;28;20049;-66
2023/12/07 03:27:04;;;;;;;47.42;43.55;;;10.40;99.90;;;;;;4987232;28;20092;-63
2023/12/07 03:29:30;;;;;;;48.80;44.08;;;10.90;99.90;;;;;;4987235;28;20076;-63
2023/12/07 03:31:55;;;;;;;45.38;41.65;;;10.90;99.90;;;;;;4985542;28;20085;-63
2023/12/07 03:34:21;;;;;;;46.00;42.10;;;9.80;83.10;;;;;;4986999;28;20479;-63
2023/12/07 03:36:47;;;;;;;50.47;45.40;;;9.70;99.90;;;;;;4987502;28;20387;-62
2023/12/07 03:39:14;;;;;;;55.10;50.30;;;9.70;1.00;;;;;;4986852;28;20042;-63
2023/12/07 03:41:40;;;;;;;46.45;42.15;;;9.50;1.00;;;;;;4987000;28;20049;-64
2023/12/07 03:44:05;;;;;;;56.05;51.30;;;9.70;95.50;;;;;;4993090;28;20046;-63
2023/12/07 03:46:31;;;;;;;58.90;53.90;;;10.30;99.90;;;;;;4998488;28;20037;-63
2023/12/07 03:48:56;;;;;;;66.70;61.28;;;10.10;99.90;;;;;;5006241;28;20073;-63
2023/12/07 03:51:22;;;;;;;65.72;60.45;;;10.30;1.00;;;;;;4992369;28;20049;-63
2023/12/07 03:53:47;;;;;;;49.83;45.35;;;10.70;1.00;;;;;;4986818;28;20038;-63
2023/12/07 03:56:24;;;;;;;46.88;42.33;;;10.80;1.00;;;;;;5001197;28;20046;-64
2023/12/07 03:58:49;;;;;;;46.70;42.25;;;10.60;1.00;;;;;;4986326;28;20061;-63
2023/12/07 04:01:15;;;;;;;53.67;49.17;;;10.10;1.20;;;;;;4986310;28;20054;-63
2023/12/07 04:03:40;;;;;;;56.33;51.35;;;10.20;10.40;;;;;;4986275;28;20054;-64
2023/12/07 04:06:06;;;;;;;52.22;47.63;;;10.20;12.50;;;;;;4986240;28;20050;-64
2023/12/07 04:08:33;;;;;;;51.72;47.15;;;10.10;25.50;;;;;;4986467;28;20142;-63
2023/12/07 04:10:58;;;;;;;174.32;54.03;;;10.10;85.70;;;;;;4986824;28;20038;-64
2023/12/07 04:13:24;;;;;;;51.85;47.28;;;10.60;99.90;;;;;;4986809;28;20440;-63
2023/12/07 04:15:49;;;;;;;46.08;41.78;;;10.50;99.90;;;;;;4992593;28;20053;-63
2023/12/07 04:18:15;;;;;;;50.70;46.50;;;10.00;99.90;;;;;;5006298;28;20052;-64
2023/12/07 04:20:41;;;;;;;48.33;43.92;;;9.80;99.90;;;;;;4992684;28;20048;-63
2023/12/07 04:23:06;;;;;;;51.03;46.75;;;9.90;99.90;;;;;;4986269;28;20049;-63
2023/12/07 04:25:32;;;;;;;48.15;44.00;;;9.80;99.90;;;;;;4986237;28;20101;-64
2023/12/07 04:27:58;;;;;;;44.15;40.45;;;9.70;99.90;;;;;;4986193;28;20058;-63
2023/12/07 04:30:24;;;;;;;46.58;41.60;;;9.60;99.90;;;;;;4998573;28;20151;-63
2023/12/07 04:32:49;;;;;;;53.08;48.97;;;9.60;99.90;;;;;;5002745;28;20411;-64
2023/12/07 04:35:15;;;;;;;48.55;43.67;;;9.60;99.90;;;;;;4986904;28;20108;-65
2023/12/07 04:37:40;;;;;;;43.65;40.05;;;8.90;1.00;;;;;;4986229;28;20077;-61
2023/12/07 04:40:06;;;;;;;55.13;50.15;;;8.80;99.90;;;;;;4984899;28;20046;-61
2023/12/07 04:42:32;;;;;;;285.63;52.65;;;8.40;99.90;;;;;;4985630;28;20042;-63
2023/12/07 04:44:58;;;;;;;45.65;41.35;;;9.20;99.90;;;;;;4987569;28;20038;-62
2023/12/07 04:47:23;;;;;;;47.50;43.20;;;9.30;1.00;;;;;;4990110;28;20428;-62
2023/12/07 04:49:49;;;;;;;46.75;42.22;;;9.10;62.40;;;;;;4986762;28;20050;-62
2023/12/07 04:52:15;;;;;;;51.28;46.58;;;9.20;99.90;;;;;;4988639;28;20042;-62
2023/12/07 04:54:40;;;;;;;51.03;46.20;;;9.70;99.90;;;;;;4989639;28;20042;-61
2023/12/07 04:57:06;;;;;;;46.45;42.28;;;9.20;99.90;;;;;;4989350;28;20038;-62
2023/12/07 04:59:32;;;;;;;50.97;46.28;;;9.40;99.90;;;;;;4989406;28;20038;-63
2023/12/07 05:01:57;;;;;;;51.38;46.97;;;9.30;99.90;;;;;;4989006;28;20051;-64
2023/12/07 05:04:23;;;;;;;44.90;40.90;;;9.30;99.90;;;;;;4989898;28;20415;-64
2023/12/07 05:06:48;;;;;;;45.97;41.15;;;9.20;99.90;;;;;;4989417;28;20047;-61
2023/12/07 05:09:15;;;;;;;147.75;44.47;;;9.40;99.90;;;;;;4989242;28;20512;-63
2023/12/07 05:11:40;;;;;;;47.67;42.63;;;9.50;99.90;;;;;;4988550;28;20058;-61
2023/12/07 05:14:07;;;;;;;50.35;44.50;;;9.90;99.90;;;;;;4989491;28;20040;-63
2023/12/07 05:16:32;;;;;;;48.97;44.58;;;9.30;1.00;;;;;;5016905;28;20057;-62
2023/12/07 05:18:58;;;;;;;55.38;50.42;;;9.50;1.00;;;;;;5005099;28;20050;-62
2023/12/07 05:21:24;;;;;;;57.53;52.55;;;9.40;1.00;;;;;;5009219;28;20110;-63
2023/12/07 05:23:50;;;;;;;47.67;43.08;;;9.30;1.00;;;;;;5009098;28;20053;-61
2023/12/07 05:26:15;;;;;;;54.90;49.90;;;9.70;79.60;;;;;;4998556;28;20046;-63
2023/12/07 05:28:41;;;;;;;46.80;42.55;;;9.90;99.90;;;;;;4988475;28;20504;-63
2023/12/07 05:31:06;;;;;;;50.65;45.92;;;9.70;99.90;;;;;;4989276;28;20489;-62
2023/12/07 05:33:32;;;;;;;695.88;67.43;;;10.00;99.90;;;;;;4989295;28;20125;-62
2023/12/07 05:35:58;;;;;;;49.42;44.83;;;10.00;99.90;;;;;;4986513;28;20042;-62
2023/12/07 05:38:24;;;;;;;49.45;45.05;;;9.70;99.90;;;;;;4988942;28;20062;-62
2023/12/07 05:40:49;;;;;;;45.55;41.45;;;9.90;99.90;;;;;;4979333;28;20483;-63
2023/12/07 05:43:15;;;;;;;51.80;47.30;;;9.80;99.90;;;;;;4987795;28;20050;-61
2023/12/07 05:45:40;;;;;;;44.45;40.50;;;10.00;99.90;;;;;;4988772;28;20515;-66
2023/12/07 05:48:06;;;;;;;52.38;47.92;;;9.90;99.90;;;;;;4988939;28;20042;-66
2023/12/07 05:50:31;;;;;;;52.92;48.42;;;9.20;99.90;;;;;;4988662;28;20044;-67
2023/12/07 05:52:57;;;;;;;51.75;47.58;;;9.60;99.90;;;;;;5001669;28;20060;-66
2023/12/07 05:55:23;;;;;;;53.00;48.58;;;9.20;99.90;;;;;;4988933;28;20077;-67
2023/12/07 05:57:49;;;;;;;49.95;45.97;;;9.60;99.90;;;;;;4987526;28;20053;-65
2023/12/07 06:00:16;;;;;;;53.55;48.75;;;8.60;1.00;;;;;;4987863;28;20046;-66
2023/12/07 06:02:42;;;;;;;845.53;81.60;;;8.50;99.90;;;;;;4987145;28;20054;-67
2023/12/07 06:05:07;;;;;;;54.50;49.33;;;8.30;1.00;;;;;;4985903;28;20489;-67
2023/12/07 06:07:33;;;;;;;52.28;47.13;;;9.10;84.40;;;;;;4986554;28;20047;-67
2023/12/07 06:09:59;;;;;;;54.42;49.25;;;9.50;99.90;;;;;;4987212;28;20038;-67
2023/12/07 06:12:25;;;;;;;51.10;45.97;;;9.00;99.90;;;;;;4987237;28;20038;-67
2023/12/07 06:14:50;;;;;;;55.10;49.42;;;9.70;99.90;;;;;;4987049;28;20472;-67
2023/12/07 06:17:16;;;;;;;55.05;49.85;;;9.10;1.00;;;;;;4985208;28;20048;-67
2023/12/07 06:19:42;;;;;;;58.75;52.47;;;9.80;1.00;;;;;;4987594;28;20038;-66
2023/12/07 06:22:08;;;;;;;50.08;44.97;;;9.90;1.00;;;;;;4985641;28;20485;-65
2023/12/07 06:24:33;;;;;;;56.05;50.35;;;9.80;24.10;;;;;;4985344;28;20038;-68
2023/12/07 06:27:01;;;;;;;52.83;46.72;;;10.00;73.30;;;;;;4975510;28;20061;-66
2023/12/07 06:29:27;;;;;;;52.33;47.13;;;9.40;95.40;;;;;;4987212;28;20113;-66
2023/12/07 06:31:52;;;;;;;57.72;52.05;;;9.50;90.20;;;;;;4984499;28;20117;-68
2023/12/07 06:34:18;;;;;;;60.92;54.88;;;9.60;99.90;;;;;;4971354;28;20042;-67
2023/12/07 06:36:45;;;;;;;53.80;48.30;;;9.50;99.90;;;;;;4978930;28;20038;-67
2023/12/07 06:39:10;;;;;;;60.15;54.50;;;9.50;99.90;;;;;;4985884;28;20050;-67
2023/12/07 06:41:36;;;;;;;59.60;53.92;;;10.00;99.90;;;;;;4987317;28;20041;-67
2023/12/07 06:44:02;;;;;;;61.50;55.45;;;9.60;99.90;;;;;;4986648;28;20069;-67
2023/12/07 06:46:27;;;;;;;65.18;56.67;;;9.50;99.90;;;;;;4983749;28;20402;-65
2023/12/07 06:48:53;;;;;;;60.28;54.35;;;9.40;97.40;;;;;;4983538;28;20050;-66
2023/12/07 06:51:18;;;;;;;59.92;53.88;;;9.70;99.90;;;;;;4987862;28;20046;-67
2023/12/07 06:53:44;;;;;;;54.05;47.17;;;9.80;99.90;;;;;;4981866;28;20413;-67
2023/12/07 06:56:09;;;;;;;62.80;56.40;;;9.30;99.90;;;;;;4986972;28;20368;-63
2023/12/07 06:58:35;;;;;;;65.82;59.30;;;9.10;99.90;;;;;;4987005;28;20042;-63
2023/12/07 07:01:00;;;;;;;62.42;55.97;;;9.90;99.90;;;;;;4993041;28;20070;-63
2023/12/07 07:03:29;;;;;;;61.70;55.20;;;9.20;99.90;;;;;;4992875;28;20030;-63
2023/12/07 07:05:55;;;;;;;58.90;52.47;;;9.70;99.90;;;;;;4986935;28;20042;-63
2023/12/07 07:08:20;;;;;;;61.55;55.40;;;10.10;99.90;;;;;;4980617;28;20069;-62
2023/12/07 07:10:49;;;;;;;60.72;54.67;;;9.30;99.90;;;;;;4983857;28;20084;-62
2023/12/07 07:13:16;;;;;;;61.65;55.42;;;9.60;99.90;;;;;;4986392;28;20056;-63
2023/12/07 07:15:43;;;;;;;58.97;52.05;;;9.70;99.90;;;;;;4978338;28;20493;-65
2023/12/07 07:18:09;;;;;;;59.75;53.60;;;9.60;99.90;;;;;;4980948;28;20214;-64
2023/12/07 07:20:35;;;;;;;59.35;53.50;;;9.70;99.90;;;;;;4983318;28;20735;-63
2023/12/07 07:23:00;;;;;;;64.60;58.08;;;9.60;99.90;;;;;;4983347;28;20042;-64
2023/12/07 07:25:26;;;;;;;61.75;55.58;;;9.20;99.90;;;;;;4983523;28;20133;-64
2023/12/07 07:27:52;;;;;;;64.70;58.42;;;9.60;99.90;;;;;;4984714;28;20049;-64
2023/12/07 07:30:18;;;;;;;61.20;54.60;;;9.30;99.90;;;;;;4983237;28;20751;-64
2023/12/07 07:32:43;;;;;;;67.13;60.53;;;9.90;99.90;;;;;;4985929;28;20110;-65
2023/12/07 07:35:11;;;;;;;64.15;57.70;;;10.00;99.90;;;;;;4984686;28;20471;-64
2023/12/07 07:37:38;;;;;;;57.72;49.03;;;9.50;99.90;;;;;;4986138;28;20129;-64
2023/12/07 07:40:06;;;;;;;59.53;53.38;;;9.90;99.90;;;;;;4987161;28;20046;-64
2023/12/07 07:42:32;;;;;;;59.67;53.53;;;9.10;99.90;;;;;;4984814;28;20293;-63
2023/12/07 07:44:58;;;;;;;59.53;53.38;;;9.00;99.90;;;;;;4984545;28;20042;-63
2023/12/07 07:47:24;;;;;;;59.15;53.00;;;9.70;99.90;;;;;;4985808;28;20046;-65
2023/12/07 07:49:49;;;;;;;62.67;55.80;;;9.00;99.90;;;;;;4985744;28;20180;-63
2023/12/07 07:52:15;;;;;;;60.58;54.47;;;9.20;99.90;;;;;;4985873;28;20493;-62
2023/12/07 07:54:41;;;;;;;63.83;57.15;;;9.40;99.90;;;;;;4982057;28;20045;-63
2023/12/07 07:57:06;;;;;;;60.15;53.10;;;9.70;99.90;;;;;;4984754;28;20042;-64
2023/12/07 07:59:32;;;;;;;65.32;58.00;;;9.30;99.90;;;;;;4985485;28;20038;-63
2023/12/07 08:01:57;;;;;;;58.45;52.55;;;9.10;99.90;;;;;;4986263;28;20050;-64
2023/12/07 08:04:23;;;;;;;65.63;58.55;;;9.90;99.90;;;;;;4985296;28;20553;-63
2023/12/07 08:06:48;;;;;;;63.55;57.05;;;9.30;99.90;;;;;;4985551;28;20505;-65
2023/12/07 08:09:14;;;;;;;60.25;53.85;;;9.30;99.90;;;;;;4986045;28;20521;-64
2023/12/07 08:11:40;;;;;;;67.97;56.17;;;9.40;99.90;;;;;;4985554;28;20551;-64
2023/12/07 08:14:05;;;;;;;58.85;51.38;;;9.70;99.90;;;;;;4985256;28;20370;-64
2023/12/07 08:16:31;;;;;;;107.85;61.63;;;9.20;99.90;;;;;;4986328;28;20117;-63
2023/12/07 08:18:58;;;;;;;67.28;57.28;;;9.30;99.90;;;;;;4985285;28;20033;-64
2023/12/07 08:21:25;;;;;;;67.15;60.22;;;10.00;99.90;;;;;;4983148;28;20428;-64
2023/12/07 08:23:51;;;;;;;69.50;62.47;;;9.60;99.90;;;;;;4986751;28;20052;-64
2023/12/07 08:26:17;;;;;;;71.25;60.92;;;9.50;99.90;;;;;;4986509;28;20042;-63
2023/12/07 08:28:43;;;;;;;70.32;58.20;;;10.00;99.90;;;;;;4991214;28;20046;-63
2023/12/07 08:31:09;;;;;;;62.67;55.55;;;9.60;99.90;;;;;;4989316;28;20042;-64
2023/12/07 08:33:34;;;;;;;71.88;59.80;;;9.40;99.90;;;;;;4988740;28;20038;-63
2023/12/07 08:36:01;;;;;;;66.60;57.30;;;9.90;99.90;;;;;;4988673;28;20045;-64
2023/12/07 08:38:26;;;;;;;67.15;58.13;;;10.20;99.90;;;;;;4989432;28;20058;-64
2023/12/07 08:40:52;;;;;;;65.35;58.13;;;10.20;99.90;;;;;;4988134;28;20424;-64
2023/12/07 08:43:24;;;;;;;66.47;58.85;;;10.20;99.90;;;;;;4988873;28;20065;-64
2023/12/07 08:45:51;;;;;;;65.72;58.72;;;9.50;99.90;;;;;;4988311;28;20633;-63
2023/12/07 08:48:18;;;;;;;65.82;58.20;;;10.60;99.90;;;;;;4987460;28;20038;-64
2023/12/07 08:50:43;;;;;;;69.55;59.65;;;10.40;99.90;;;;;;4992353;28;20053;-63
2023/12/07 08:53:09;;;;;;;65.93;58.35;;;10.30;99.90;;;;;;4992632;28;20492;-63
2023/12/07 08:55:34;;;;;;;68.45;60.55;;;10.40;99.90;;;;;;4989045;28;20527;-65
2023/12/07 08:58:00;;;;;;;67.72;58.45;;;9.90;99.90;;;;;;4986713;28;20762;-63
2023/12/07 09:00:26;;;;;;;70.32;58.78;;;10.60;99.90;;;;;;4987375;28;20042;-64
2023/12/07 09:02:51;;;;;;;66.07;57.95;;;10.00;99.90;;;;;;4990077;28;20053;-64
2023/12/07 09:05:17;;;;;;;65.78;56.90;;;10.20;99.90;;;;;;4988838;28;20493;-63
2023/12/07 09:07:44;;;;;;;67.32;60.08;;;10.60;99.90;;;;;;4988256;28;20049;-63
2023/12/07 09:10:10;;;;;;;74.13;61.90;;;10.10;99.90;;;;;;4989248;28;20119;-64
2023/12/07 09:12:36;;;;;;;69.10;58.90;;;10.80;99.90;;;;;;4989245;28;20038;-62
2023/12/07 09:15:07;;;;;;;74.60;62.58;;;12.20;99.90;;;;;;4988717;28;20034;-64
2023/12/07 09:17:32;;;;;;;59.90;53.13;;;10.30;99.90;;;;;;4988373;28;20053;-64
2023/12/07 09:19:58;;;;;;;70.82;59.78;;;11.00;99.90;;;;;;4988639;28;20362;-63
2023/12/07 09:22:25;;;;;;;68.18;59.30;;;11.40;99.90;;;;;;4989072;28;20042;-63
2023/12/07 09:24:50;;;;;;;63.65;56.83;;;11.80;99.90;;;;;;4988429;28;20038;-62
2023/12/07 09:27:16;;;;;;;74.15;60.75;;;10.70;99.90;;;;;;4988486;28;20147;-63
2023/12/07 09:29:42;;;;;;;66.30;55.72;;;11.20;99.90;;;;;;4988903;28;20041;-63
2023/12/07 09:32:07;;;;;;;66.53;59.35;;;11.30;99.90;;;;;;4989467;28;20038;-63
2023/12/07 09:34:33;;;;;;;64.43;57.53;;;11.30;99.90;;;;;;4989778;28;20053;-64
2023/12/07 09:37:07;;;;;;;64.10;57.17;;;10.60;99.90;;;;;;4987322;28;20050;-65
2023/12/07 09:39:32;;;;;;;63.95;57.03;;;11.40;99.90;;;;;;4988677;28;20042;-64
2023/12/07 09:41:58;;;;;;;63.10;56.42;;;10.60;99.90;;;;;;4984782;28;20049;-67
2023/12/07 09:44:24;;;;;;;62.38;55.58;;;10.70;99.90;;;;;;4983459;28;20564;-62
2023/12/07 09:46:50;;;;;;;59.67;53.28;;;10.80;99.90;;;;;;4988511;28;20403;-63
2023/12/07 09:49:16;;;;;;;60.40;53.75;;;10.80;99.90;;;;;;4988556;28;20147;-62
2023/12/07 09:51:43;;;;;;;64.53;57.50;;;10.90;99.90;;;;;;4988567;28;20117;-62
2023/12/07 09:54:09;;;;;;;63.42;56.47;;;11.70;99.90;;;;;;4991227;28;20034;-62
2023/12/07 09:56:34;;;;;;;64.18;57.28;;;11.90;99.90;;;;;;4987974;28;20109;-63
2023/12/07 09:59:00;;;;;;;67.38;60.10;;;11.20;99.90;;;;;;4988308;28;20054;-62
2023/12/07 10:01:34;;;;;;;63.67;55.75;;;12.00;99.90;;;;;;4988110;28;20161;-62
2023/12/07 10:04:20;;;;;;;64.85;57.80;;;11.90;99.90;;;;;;4988304;28;20464;-63
2023/12/07 10:06:47;;;;;;;68.53;57.75;;;11.90;99.90;;;;;;4986437;28;20049;-63
2023/12/07 10:09:13;;;;;;;63.38;54.50;;;11.40;99.90;;;;;;4988807;28;20046;-63
2023/12/07 10:11:39;;;;;;;63.80;56.75;;;12.30;99.90;;;;;;4988783;28;20045;-63
2023/12/07 10:14:07;;;;;;;62.30;55.47;;;11.40;99.90;;;;;;4987180;28;20042;-62
2023/12/07 10:16:36;;;;;;;60.90;54.28;;;12.30;99.90;;;;;;4987172;28;20038;-63
2023/12/07 10:19:17;;;;;;;64.55;57.65;;;12.30;99.90;;;;;;4987569;28;20054;-64
2023/12/07 10:21:43;;;;;;;68.00;60.75;;;12.70;99.90;;;;;;4986507;28;20793;-63
2023/12/07 10:24:09;;;;;;;63.25;56.47;;;12.40;99.90;;;;;;4986833;28;20053;-63
2023/12/07 10:26:37;;;;;;;66.55;55.95;;;12.50;99.90;;;;;;4986714;28;20133;-65
2023/12/07 10:29:05;;;;;;;62.40;55.53;;;12.50;99.90;;;;;;4987857;28;20875;-65
2023/12/07 10:31:32;;;;;;;62.85;56.03;;;11.80;99.90;;;;;;4988065;28;20053;-65
2023/12/07 10:33:59;;;;;;;63.00;55.25;;;12.70;99.90;;;;;;5002403;28;20046;-65
2023/12/07 10:36:25;;;;;;;62.00;55.25;;;11.90;99.90;;;;;;4983807;28;20104;-65
2023/12/07 10:38:51;;;;;;;63.33;55.30;;;12.40;99.90;;;;;;4988332;28;20038;-65
2023/12/07 10:41:19;;;;;;;62.47;55.45;;;12.70;99.90;;;;;;4986046;28;20042;-65
2023/12/07 10:43:49;;;;;;;66.78;59.78;;;13.20;99.90;;;;;;4986372;28;20034;-65
2023/12/07 10:46:18;;;;;;;58.53;52.03;;;11.90;99.90;;;;;;4982059;28;20459;-65
2023/12/07 10:48:48;;;;;;;62.60;55.75;;;12.80;99.90;;;;;;4986999;28;20129;-65
2023/12/07 10:51:42;;;;;;;66.45;59.42;;;12.80;99.90;;;;;;4983798;28;20041;-65
2023/12/07 10:54:11;;;;;;;63.85;57.22;;;12.80;99.90;;;;;;4981881;28;20050;-65
2023/12/07 10:56:45;;;;;;;64.85;57.30;;;12.80;99.90;;;;;;4984167;28;20137;-65
2023/12/07 10:59:13;;;;;;;57.38;51.03;;;11.90;99.90;;;;;;4987534;28;20046;-65
2023/12/07 11:01:40;;;;;;;59.90;53.72;;;11.90;99.90;;;;;;4986747;28;20580;-65
2023/12/07 11:04:06;;;;;;;66.68;59.47;;;13.30;99.90;;;;;;4987779;28;20421;-65
2023/12/07 11:06:35;;;;;;;61.20;54.78;;;12.10;99.90;;;;;;4984184;28;20049;-66
2023/12/07 11:09:05;;;;;;;68.63;60.78;;;12.90;99.90;;;;;;4985149;28;20046;-65
2023/12/07 11:11:44;;;;;;;65.68;56.67;;;12.30;99.90;;;;;;4986197;28;20116;-65
2023/12/07 11:14:11;;;;;;;67.82;60.90;;;12.90;99.90;;;;;;4986717;28;20038;-65
2023/12/07 11:16:40;;;;;;;64.88;57.95;;;12.50;99.90;;;;;;4983260;28;20038;-65
2023/12/07 11:19:29;;;;;;;61.95;55.28;;;12.20;99.90;;;;;;4986455;28;20038;-66
2023/12/07 11:21:56;;;;;;;63.22;55.90;;;12.30;99.90;;;;;;4986325;28;20096;-69
2023/12/07 11:24:23;;;;;;;70.65;63.03;;;12.20;99.90;;;;;;4985459;28;20094;-68
2023/12/07 11:26:52;;;;;;;73.03;61.72;;;12.20;99.90;;;;;;4987311;28;20397;-69
2023/12/07 11:29:24;;;;;;;71.55;61.75;;;13.10;99.90;;;;;;4986739;28;20716;-68
2023/12/07 11:31:50;;;;;;;65.07;57.97;;;12.90;99.90;;;;;;4985295;28;20763;-69
2023/12/07 11:34:36;;;;;;;62.05;54.63;;;13.00;99.90;;;;;;4983501;28;20076;-66
2023/12/07 11:37:14;;;;;;;;;;;12.30;99.90;;;;;;4975422;28;20050;-69
2023/12/07 11:39:41;;;;;;;66.13;58.72;;;12.20;99.90;;;;;;5018440;28;20012;-67
2023/12/07 11:42:17;;;;;;;62.08;55.38;;;12.50;99.90;;;;;;4990719;28;20531;-68
2023/12/07 11:44:46;;;;;;;60.22;53.72;;;12.50;99.90;;;;;;4989750;28;20058;-67
2023/12/07 11:47:16;;;;;;;61.65;55.05;;;13.10;99.90;;;;;;4985692;28;20057;-68
2023/12/07 11:49:43;;;;;;;63.50;51.78;;;13.10;99.90;;;;;;4986052;28;20041;-68
2023/12/07 11:52:21;;;;;;;60.90;54.83;;;12.40;99.90;;;;;;4985682;28;20038;-68
2023/12/07 11:54:48;;;;;;;64.38;57.42;;;12.20;99.90;;;;;;4985293;28;20046;-68
2023/12/07 11:57:14;;;;;;;62.15;55.72;;;12.20;99.90;;;;;;4984256;28;20077;-68
2023/12/07 11:59:40;;;;;;;61.42;54.75;;;12.60;99.90;;;;;;4982628;28;20038;-68
2023/12/07 12:02:06;;;;;;;62.55;55.58;;;13.10;99.90;;;;;;4985864;28;20417;-67
2023/12/07 12:04:31;;;;;;;64.40;57.10;;;12.80;99.90;;;;;;4985891;28;20046;-68
2023/12/07 12:06:57;;;;;;;63.78;55.45;;;12.30;99.90;;;;;;4983445;28;20049;-69
2023/12/07 12:09:26;;;;;;;58.20;52.22;;;12.90;99.90;;;;;;4985778;28;20452;-68
2023/12/07 12:11:51;;;;;;;59.30;52.85;;;12.20;99.90;;;;;;4984053;28;20038;-68
2023/12/07 12:14:17;;;;;;;64.68;57.05;;;13.10;99.90;;;;;;4984786;28;20059;-68
2023/12/07 12:16:44;;;;;;;61.75;55.20;;;12.80;99.90;;;;;;4984767;28;20038;-68
2023/12/07 12:19:10;;;;;;;63.92;54.95;;;12.50;99.90;;;;;;4985797;28;20388;-68
2023/12/07 12:21:40;;;;;;;62.63;56.05;;;12.40;99.90;;;;;;4984846;28;20034;-66
2023/12/07 12:24:06;;;;;;;66.95;58.67;;;12.30;99.90;;;;;;4985049;28;20417;-68
2023/12/07 12:26:34;;;;;;;61.38;54.92;;;12.30;99.90;;;;;;4984136;28;20045;-65
2023/12/07 12:29:01;;;;;;;69.03;57.85;;;13.00;99.90;;;;;;4982954;28;20096;-66
2023/12/07 12:31:27;;;;;;;63.13;53.58;;;12.80;99.90;;;;;;4984625;28;20050;-65